sensor_id;sensor_type;location;lat;lon;timestamp;P1;durP1;ratioP1;P2;durP2;ratioP2
17854;SDS011;9053;53.358;6.382;2023-12-20T00:00:51;9.23;;;1.80;;
17854;SDS011;9053;53.358;6.382;2023-12-20T00:03:21;9.97;;;1.93;;
17854;SDS011;9053;53.358;6.382;2023-12-20T00:05:54;9.37;;;2.90;;
17854;SDS011;9053;53.358;6.382;2023-12-20T00:08:24;5.50;;;1.90;;
17854;SDS011;9053;53.358;6.382;2023-12-20T00:10:53;10.37;;;2.53;;
17854;SDS011;9053;53.358;6.382;2023-12-20T00:13:23;11.57;;;2.00;;
17854;SDS011;9053;53.358;6.382;2023-12-20T00:15:53;8.33;;;2.00;;
17854;SDS011;9053;53.358;6.382;2023-12-20T00:18:23;10.13;;;2.00;;
17854;SDS011;9053;53.358;6.382;2023-12-20T00:20:56;9.53;;;2.17;;
17854;SDS011;9053;53.358;6.382;2023-12-20T00:23:26;9.63;;;2.20;;
17854;SDS011;9053;53.358;6.382;2023-12-20T00:25:56;13.23;;;2.90;;
17854;SDS011;9053;53.358;6.382;2023-12-20T00:28:26;6.57;;;1.90;;
17854;SDS011;9053;53.358;6.382;2023-12-20T00:30:56;10.17;;;2.40;;
17854;SDS011;9053;53.358;6.382;2023-12-20T00:33:26;11.03;;;2.37;;
17854;SDS011;9053;53.358;6.382;2023-12-20T00:35:59;11.73;;;2.33;;
17854;SDS011;9053;53.358;6.382;2023-12-20T00:38:29;10.37;;;2.17;;
17854;SDS011;9053;53.358;6.382;2023-12-20T00:40:59;11.60;;;2.20;;
17854;SDS011;9053;53.358;6.382;2023-12-20T00:43:29;11.93;;;2.40;;
17854;SDS011;9053;53.358;6.382;2023-12-20T00:45:59;9.50;;;1.80;;
17854;SDS011;9053;53.358;6.382;2023-12-20T00:48:29;9.83;;;2.03;;
17854;SDS011;9053;53.358;6.382;2023-12-20T00:51:02;7.93;;;3.00;;
17854;SDS011;9053;53.358;6.382;2023-12-20T00:53:32;10.30;;;2.10;;
17854;SDS011;9053;53.358;6.382;2023-12-20T00:56:02;9.70;;;2.03;;
17854;SDS011;9053;53.358;6.382;2023-12-20T00:58:33;9.47;;;2.17;;
17854;SDS011;9053;53.358;6.382;2023-12-20T01:01:03;8.03;;;2.00;;
17854;SDS011;9053;53.358;6.382;2023-12-20T01:03:33;10.50;;;2.10;;
17854;SDS011;9053;53.358;6.382;2023-12-20T01:06:06;7.23;;;1.80;;
17854;SDS011;9053;53.358;6.382;2023-12-20T01:08:37;10.53;;;2.23;;
17854;SDS011;9053;53.358;6.382;2023-12-20T01:11:07;11.10;;;1.97;;
17854;SDS011;9053;53.358;6.382;2023-12-20T01:13:37;10.43;;;2.10;;
17854;SDS011;9053;53.358;6.382;2023-12-20T01:16:06;12.60;;;2.60;;
17854;SDS011;9053;53.358;6.382;2023-12-20T01:18:39;10.80;;;2.70;;
17854;SDS011;9053;53.358;6.382;2023-12-20T01:21:12;8.90;;;2.27;;
17854;SDS011;9053;53.358;6.382;2023-12-20T01:23:42;8.57;;;2.30;;
17854;SDS011;9053;53.358;6.382;2023-12-20T01:26:12;10.27;;;2.67;;
17854;SDS011;9053;53.358;6.382;2023-12-20T01:28:42;11.73;;;2.67;;
17854;SDS011;9053;53.358;6.382;2023-12-20T01:31:12;9.37;;;2.20;;
17854;SDS011;9053;53.358;6.382;2023-12-20T01:33:44;14.37;;;2.53;;
17854;SDS011;9053;53.358;6.382;2023-12-20T01:36:18;16.20;;;2.80;;
17854;SDS011;9053;53.358;6.382;2023-12-20T01:38:53;12.43;;;2.53;;
17854;SDS011;9053;53.358;6.382;2023-12-20T01:41:24;10.13;;;2.73;;
17854;SDS011;9053;53.358;6.382;2023-12-20T01:43:54;13.70;;;2.43;;
17854;SDS011;9053;53.358;6.382;2023-12-20T01:46:24;10.53;;;2.73;;
17854;SDS011;9053;53.358;6.382;2023-12-20T01:48:55;10.63;;;2.70;;
17854;SDS011;9053;53.358;6.382;2023-12-20T01:51:28;11.93;;;2.60;;
17854;SDS011;9053;53.358;6.382;2023-12-20T01:53:58;9.50;;;2.50;;
17854;SDS011;9053;53.358;6.382;2023-12-20T01:56:29;10.23;;;2.30;;
17854;SDS011;9053;53.358;6.382;2023-12-20T01:59:00;11.67;;;3.37;;
17854;SDS011;9053;53.358;6.382;2023-12-20T02:01:31;13.37;;;3.10;;
17854;SDS011;9053;53.358;6.382;2023-12-20T02:04:02;11.00;;;2.57;;
17854;SDS011;9053;53.358;6.382;2023-12-20T02:06:32;12.30;;;2.87;;
17854;SDS011;9053;53.358;6.382;2023-12-20T02:09:03;11.57;;;2.90;;
17854;SDS011;9053;53.358;6.382;2023-12-20T02:11:34;15.67;;;3.07;;
17854;SDS011;9053;53.358;6.382;2023-12-20T02:14:05;17.40;;;3.13;;
17854;SDS011;9053;53.358;6.382;2023-12-20T02:16:35;12.47;;;3.80;;
17854;SDS011;9053;53.358;6.382;2023-12-20T02:19:05;18.27;;;3.77;;
17854;SDS011;9053;53.358;6.382;2023-12-20T02:21:45;15.10;;;3.40;;
17854;SDS011;9053;53.358;6.382;2023-12-20T02:24:15;15.73;;;3.43;;
17854;SDS011;9053;53.358;6.382;2023-12-20T02:26:45;19.47;;;3.30;;
17854;SDS011;9053;53.358;6.382;2023-12-20T02:29:15;16.70;;;2.90;;
17854;SDS011;9053;53.358;6.382;2023-12-20T02:31:45;18.47;;;3.00;;
17854;SDS011;9053;53.358;6.382;2023-12-20T02:34:15;23.10;;;4.07;;
17854;SDS011;9053;53.358;6.382;2023-12-20T02:36:48;15.67;;;2.87;;
17854;SDS011;9053;53.358;6.382;2023-12-20T02:39:19;15.13;;;3.27;;
17854;SDS011;9053;53.358;6.382;2023-12-20T02:41:57;17.23;;;3.20;;
17854;SDS011;9053;53.358;6.382;2023-12-20T02:44:27;17.37;;;3.83;;
17854;SDS011;9053;53.358;6.382;2023-12-20T02:46:57;20.17;;;3.70;;
17854;SDS011;9053;53.358;6.382;2023-12-20T02:49:27;16.60;;;3.77;;
17854;SDS011;9053;53.358;6.382;2023-12-20T02:52:01;18.30;;;3.40;;
17854;SDS011;9053;53.358;6.382;2023-12-20T02:54:31;21.67;;;4.33;;
17854;SDS011;9053;53.358;6.382;2023-12-20T02:57:01;17.33;;;4.13;;
17854;SDS011;9053;53.358;6.382;2023-12-20T02:59:32;19.93;;;3.90;;
17854;SDS011;9053;53.358;6.382;2023-12-20T03:02:02;18.57;;;4.97;;
17854;SDS011;9053;53.358;6.382;2023-12-20T03:04:32;16.30;;;3.50;;
17854;SDS011;9053;53.358;6.382;2023-12-20T03:07:04;22.63;;;6.03;;
17854;SDS011;9053;53.358;6.382;2023-12-20T03:09:34;14.07;;;3.90;;
17854;SDS011;9053;53.358;6.382;2023-12-20T03:12:24;22.07;;;4.33;;
17854;SDS011;9053;53.358;6.382;2023-12-20T03:14:54;18.47;;;3.60;;
17854;SDS011;9053;53.358;6.382;2023-12-20T03:17:24;13.70;;;3.30;;
17854;SDS011;9053;53.358;6.382;2023-12-20T03:19:54;14.80;;;2.53;;
17854;SDS011;9053;53.358;6.382;2023-12-20T03:22:27;13.70;;;3.07;;
17854;SDS011;9053;53.358;6.382;2023-12-20T03:24:57;10.30;;;2.50;;
17854;SDS011;9053;53.358;6.382;2023-12-20T03:27:27;12.83;;;2.40;;
17854;SDS011;9053;53.358;6.382;2023-12-20T03:29:56;11.67;;;2.83;;
17854;SDS011;9053;53.358;6.382;2023-12-20T03:32:26;13.80;;;2.93;;
17854;SDS011;9053;53.358;6.382;2023-12-20T03:34:57;17.77;;;3.50;;
17854;SDS011;9053;53.358;6.382;2023-12-20T03:37:30;11.83;;;2.87;;
17854;SDS011;9053;53.358;6.382;2023-12-20T03:40:00;16.63;;;3.63;;
17854;SDS011;9053;53.358;6.382;2023-12-20T03:42:30;16.23;;;3.20;;
17854;SDS011;9053;53.358;6.382;2023-12-20T03:45:00;16.53;;;3.17;;
17854;SDS011;9053;53.358;6.382;2023-12-20T03:47:30;12.43;;;3.13;;
17854;SDS011;9053;53.358;6.382;2023-12-20T03:50:00;24.53;;;3.90;;
17854;SDS011;9053;53.358;6.382;2023-12-20T03:52:33;14.70;;;3.23;;
17854;SDS011;9053;53.358;6.382;2023-12-20T03:55:03;19.47;;;3.90;;
17854;SDS011;9053;53.358;6.382;2023-12-20T03:57:34;24.27;;;4.23;;
17854;SDS011;9053;53.358;6.382;2023-12-20T04:00:05;16.93;;;3.53;;
17854;SDS011;9053;53.358;6.382;2023-12-20T04:02:38;19.13;;;4.00;;
17854;SDS011;9053;53.358;6.382;2023-12-20T04:05:09;15.53;;;3.63;;
17854;SDS011;9053;53.358;6.382;2023-12-20T04:07:42;17.10;;;4.20;;
17854;SDS011;9053;53.358;6.382;2023-12-20T04:10:13;20.30;;;3.87;;
17854;SDS011;9053;53.358;6.382;2023-12-20T04:12:43;18.60;;;3.90;;
17854;SDS011;9053;53.358;6.382;2023-12-20T04:15:13;21.00;;;3.90;;
17854;SDS011;9053;53.358;6.382;2023-12-20T04:17:44;16.33;;;4.07;;
17854;SDS011;9053;53.358;6.382;2023-12-20T04:20:15;20.17;;;3.83;;
17854;SDS011;9053;53.358;6.382;2023-12-20T04:22:48;19.63;;;4.07;;
17854;SDS011;9053;53.358;6.382;2023-12-20T04:25:18;17.60;;;3.50;;
17854;SDS011;9053;53.358;6.382;2023-12-20T04:27:48;17.70;;;3.93;;
17854;SDS011;9053;53.358;6.382;2023-12-20T04:30:19;21.90;;;3.50;;
17854;SDS011;9053;53.358;6.382;2023-12-20T04:32:49;17.07;;;3.63;;
17854;SDS011;9053;53.358;6.382;2023-12-20T04:35:24;24.70;;;4.50;;
17854;SDS011;9053;53.358;6.382;2023-12-20T04:37:57;16.90;;;3.27;;
17854;SDS011;9053;53.358;6.382;2023-12-20T04:40:27;15.67;;;3.70;;
17854;SDS011;9053;53.358;6.382;2023-12-20T04:42:57;16.77;;;3.30;;
17854;SDS011;9053;53.358;6.382;2023-12-20T04:45:27;17.87;;;3.80;;
17854;SDS011;9053;53.358;6.382;2023-12-20T04:47:57;18.73;;;3.90;;
17854;SDS011;9053;53.358;6.382;2023-12-20T04:50:28;20.07;;;3.47;;
17854;SDS011;9053;53.358;6.382;2023-12-20T04:53:00;21.17;;;3.70;;
17854;SDS011;9053;53.358;6.382;2023-12-20T04:55:30;16.43;;;3.33;;
17854;SDS011;9053;53.358;6.382;2023-12-20T04:58:00;21.47;;;4.10;;
17854;SDS011;9053;53.358;6.382;2023-12-20T05:00:30;18.83;;;4.23;;
17854;SDS011;9053;53.358;6.382;2023-12-20T05:03:00;17.77;;;3.90;;
17854;SDS011;9053;53.358;6.382;2023-12-20T05:05:30;19.93;;;4.47;;
17854;SDS011;9053;53.358;6.382;2023-12-20T05:08:03;18.50;;;3.80;;
17854;SDS011;9053;53.358;6.382;2023-12-20T05:10:34;19.00;;;3.80;;
17854;SDS011;9053;53.358;6.382;2023-12-20T05:13:03;20.67;;;4.50;;
17854;SDS011;9053;53.358;6.382;2023-12-20T05:15:34;17.50;;;4.07;;
17854;SDS011;9053;53.358;6.382;2023-12-20T05:18:04;16.00;;;3.17;;
17854;SDS011;9053;53.358;6.382;2023-12-20T05:20:34;20.77;;;3.67;;
17854;SDS011;9053;53.358;6.382;2023-12-20T05:23:07;22.57;;;4.27;;
17854;SDS011;9053;53.358;6.382;2023-12-20T05:25:38;17.83;;;3.70;;
17854;SDS011;9053;53.358;6.382;2023-12-20T05:28:08;18.57;;;3.87;;
17854;SDS011;9053;53.358;6.382;2023-12-20T05:30:38;18.87;;;4.23;;
17854;SDS011;9053;53.358;6.382;2023-12-20T05:33:10;17.20;;;4.27;;
17854;SDS011;9053;53.358;6.382;2023-12-20T05:36:04;24.37;;;3.70;;
17854;SDS011;9053;53.358;6.382;2023-12-20T05:38:40;10.30;;;3.17;;
17854;SDS011;9053;53.358;6.382;2023-12-20T05:41:10;19.13;;;3.47;;
17854;SDS011;9053;53.358;6.382;2023-12-20T05:43:40;21.20;;;4.20;;
17854;SDS011;9053;53.358;6.382;2023-12-20T05:46:10;22.77;;;5.10;;
17854;SDS011;9053;53.358;6.382;2023-12-20T05:48:41;18.57;;;3.73;;
17854;SDS011;9053;53.358;6.382;2023-12-20T05:51:11;19.90;;;3.80;;
17854;SDS011;9053;53.358;6.382;2023-12-20T05:53:44;21.40;;;3.40;;
17854;SDS011;9053;53.358;6.382;2023-12-20T05:56:17;18.07;;;3.97;;
17854;SDS011;9053;53.358;6.382;2023-12-20T05:58:49;17.27;;;5.00;;
17854;SDS011;9053;53.358;6.382;2023-12-20T06:01:20;18.87;;;3.63;;
17854;SDS011;9053;53.358;6.382;2023-12-20T06:03:50;16.00;;;3.90;;
17854;SDS011;9053;53.358;6.382;2023-12-20T06:06:20;17.77;;;3.93;;
17854;SDS011;9053;53.358;6.382;2023-12-20T06:08:53;18.20;;;3.97;;
17854;SDS011;9053;53.358;6.382;2023-12-20T06:11:23;22.17;;;4.77;;
17854;SDS011;9053;53.358;6.382;2023-12-20T06:13:54;20.00;;;4.10;;
17854;SDS011;9053;53.358;6.382;2023-12-20T06:16:24;15.73;;;3.80;;
17854;SDS011;9053;53.358;6.382;2023-12-20T06:18:54;20.27;;;4.27;;
17854;SDS011;9053;53.358;6.382;2023-12-20T06:21:24;20.20;;;4.50;;
17854;SDS011;9053;53.358;6.382;2023-12-20T06:23:58;19.73;;;4.10;;
17854;SDS011;9053;53.358;6.382;2023-12-20T06:26:28;21.60;;;4.20;;
17854;SDS011;9053;53.358;6.382;2023-12-20T06:28:58;16.10;;;3.70;;
17854;SDS011;9053;53.358;6.382;2023-12-20T06:31:29;31.70;;;5.17;;
17854;SDS011;9053;53.358;6.382;2023-12-20T06:33:59;13.70;;;4.30;;
17854;SDS011;9053;53.358;6.382;2023-12-20T06:36:30;24.27;;;4.70;;
17854;SDS011;9053;53.358;6.382;2023-12-20T06:39:02;23.20;;;3.93;;
17854;SDS011;9053;53.358;6.382;2023-12-20T06:41:32;18.50;;;4.43;;
17854;SDS011;9053;53.358;6.382;2023-12-20T06:44:02;20.17;;;5.00;;
17854;SDS011;9053;53.358;6.382;2023-12-20T06:46:32;16.43;;;4.63;;
17854;SDS011;9053;53.358;6.382;2023-12-20T06:49:02;21.03;;;4.47;;
17854;SDS011;9053;53.358;6.382;2023-12-20T06:51:32;23.23;;;4.80;;
17854;SDS011;9053;53.358;6.382;2023-12-20T06:54:05;20.53;;;4.70;;
17854;SDS011;9053;53.358;6.382;2023-12-20T06:56:35;15.00;;;4.57;;
17854;SDS011;9053;53.358;6.382;2023-12-20T06:59:05;19.30;;;5.50;;
17854;SDS011;9053;53.358;6.382;2023-12-20T07:01:36;21.57;;;4.47;;
17854;SDS011;9053;53.358;6.382;2023-12-20T07:04:07;15.00;;;3.93;;
17854;SDS011;9053;53.358;6.382;2023-12-20T07:06:38;20.23;;;4.07;;
17854;SDS011;9053;53.358;6.382;2023-12-20T07:09:10;16.17;;;4.30;;
17854;SDS011;9053;53.358;6.382;2023-12-20T07:11:40;21.03;;;4.30;;
17854;SDS011;9053;53.358;6.382;2023-12-20T07:14:10;24.90;;;5.27;;
17854;SDS011;9053;53.358;6.382;2023-12-20T07:16:40;27.40;;;4.87;;
17854;SDS011;9053;53.358;6.382;2023-12-20T07:19:10;24.77;;;6.13;;
17854;SDS011;9053;53.358;6.382;2023-12-20T07:21:40;20.97;;;4.97;;
17854;SDS011;9053;53.358;6.382;2023-12-20T07:24:13;25.10;;;5.03;;
17854;SDS011;9053;53.358;6.382;2023-12-20T07:26:43;21.07;;;4.33;;
17854;SDS011;9053;53.358;6.382;2023-12-20T07:29:13;18.20;;;4.43;;
17854;SDS011;9053;53.358;6.382;2023-12-20T07:31:43;19.03;;;5.43;;
17854;SDS011;9053;53.358;6.382;2023-12-20T07:34:13;28.10;;;5.73;;
17854;SDS011;9053;53.358;6.382;2023-12-20T07:36:45;24.17;;;4.70;;
17854;SDS011;9053;53.358;6.382;2023-12-20T07:39:18;23.50;;;4.60;;
17854;SDS011;9053;53.358;6.382;2023-12-20T07:41:48;21.20;;;4.50;;
17854;SDS011;9053;53.358;6.382;2023-12-20T07:44:18;23.83;;;4.70;;
17854;SDS011;9053;53.358;6.382;2023-12-20T07:46:48;16.43;;;5.13;;
17854;SDS011;9053;53.358;6.382;2023-12-20T07:49:18;20.67;;;4.13;;
17854;SDS011;9053;53.358;6.382;2023-12-20T07:51:48;18.80;;;4.63;;
17854;SDS011;9053;53.358;6.382;2023-12-20T07:54:21;19.03;;;4.03;;
17854;SDS011;9053;53.358;6.382;2023-12-20T07:56:51;20.77;;;4.80;;
17854;SDS011;9053;53.358;6.382;2023-12-20T07:59:24;18.17;;;4.43;;
17854;SDS011;9053;53.358;6.382;2023-12-20T08:01:58;16.50;;;4.53;;
17854;SDS011;9053;53.358;6.382;2023-12-20T08:04:28;24.00;;;5.10;;
17854;SDS011;9053;53.358;6.382;2023-12-20T08:06:59;18.73;;;5.03;;
17854;SDS011;9053;53.358;6.382;2023-12-20T08:09:32;23.20;;;4.87;;
17854;SDS011;9053;53.358;6.382;2023-12-20T08:12:03;22.57;;;4.50;;
17854;SDS011;9053;53.358;6.382;2023-12-20T08:14:34;9.53;;;2.03;;
17854;SDS011;9053;53.358;6.382;2023-12-20T08:17:03;7.63;;;1.77;;
17854;SDS011;9053;53.358;6.382;2023-12-20T08:19:33;8.40;;;2.03;;
17854;SDS011;9053;53.358;6.382;2023-12-20T08:22:03;10.13;;;1.93;;
17854;SDS011;9053;53.358;6.382;2023-12-20T08:24:36;11.77;;;1.97;;
17854;SDS011;9053;53.358;6.382;2023-12-20T08:27:06;9.53;;;1.70;;
17854;SDS011;9053;53.358;6.382;2023-12-20T08:29:36;9.67;;;2.70;;
17854;SDS011;9053;53.358;6.382;2023-12-20T08:32:06;11.00;;;2.80;;
17854;SDS011;9053;53.358;6.382;2023-12-20T08:34:36;8.97;;;1.83;;
17854;SDS011;9053;53.358;6.382;2023-12-20T08:37:09;12.77;;;2.03;;
17854;SDS011;9053;53.358;6.382;2023-12-20T08:39:42;9.97;;;2.20;;
17854;SDS011;9053;53.358;6.382;2023-12-20T08:42:13;10.87;;;2.87;;
17854;SDS011;9053;53.358;6.382;2023-12-20T08:44:42;10.27;;;2.00;;
17854;SDS011;9053;53.358;6.382;2023-12-20T08:47:12;5.80;;;1.60;;
17854;SDS011;9053;53.358;6.382;2023-12-20T08:49:44;5.37;;;1.40;;
17854;SDS011;9053;53.358;6.382;2023-12-20T08:52:16;7.90;;;1.83;;
17854;SDS011;9053;53.358;6.382;2023-12-20T08:54:49;11.17;;;2.37;;
17854;SDS011;9053;53.358;6.382;2023-12-20T08:57:20;15.40;;;2.33;;
17854;SDS011;9053;53.358;6.382;2023-12-20T08:59:51;11.60;;;2.30;;
17854;SDS011;9053;53.358;6.382;2023-12-20T09:02:22;11.77;;;1.97;;
17854;SDS011;9053;53.358;6.382;2023-12-20T09:04:52;15.23;;;2.20;;
17854;SDS011;9053;53.358;6.382;2023-12-20T09:07:22;11.63;;;1.97;;
17854;SDS011;9053;53.358;6.382;2023-12-20T09:09:55;10.67;;;2.13;;
17854;SDS011;9053;53.358;6.382;2023-12-20T09:12:26;12.00;;;2.27;;
17854;SDS011;9053;53.358;6.382;2023-12-20T09:14:56;11.17;;;1.73;;
17854;SDS011;9053;53.358;6.382;2023-12-20T09:17:28;11.33;;;2.73;;
17854;SDS011;9053;53.358;6.382;2023-12-20T09:20:01;9.13;;;2.93;;
17854;SDS011;9053;53.358;6.382;2023-12-20T09:22:34;10.00;;;1.90;;
17854;SDS011;9053;53.358;6.382;2023-12-20T09:25:08;9.97;;;2.00;;
17854;SDS011;9053;53.358;6.382;2023-12-20T09:27:39;9.57;;;2.10;;
17854;SDS011;9053;53.358;6.382;2023-12-20T09:30:09;10.10;;;1.83;;
17854;SDS011;9053;53.358;6.382;2023-12-20T09:32:53;11.20;;;2.00;;
17854;SDS011;9053;53.358;6.382;2023-12-20T09:35:23;9.47;;;2.33;;
17854;SDS011;9053;53.358;6.382;2023-12-20T09:37:54;7.33;;;1.83;;
17854;SDS011;9053;53.358;6.382;2023-12-20T09:40:30;13.00;;;2.47;;
17854;SDS011;9053;53.358;6.382;2023-12-20T09:43:03;10.77;;;2.47;;
17854;SDS011;9053;53.358;6.382;2023-12-20T09:45:34;11.73;;;2.60;;
17854;SDS011;9053;53.358;6.382;2023-12-20T09:48:05;14.03;;;3.53;;
17854;SDS011;9053;53.358;6.382;2023-12-20T09:50:36;8.60;;;2.10;;
17854;SDS011;9053;53.358;6.382;2023-12-20T09:53:07;10.60;;;1.90;;
17854;SDS011;9053;53.358;6.382;2023-12-20T09:55:44;14.63;;;2.70;;
17854;SDS011;9053;53.358;6.382;2023-12-20T09:58:16;13.83;;;2.47;;
17854;SDS011;9053;53.358;6.382;2023-12-20T10:00:46;8.27;;;2.23;;
17854;SDS011;9053;53.358;6.382;2023-12-20T10:03:16;14.87;;;3.10;;
17854;SDS011;9053;53.358;6.382;2023-12-20T10:05:50;13.33;;;3.00;;
17854;SDS011;9053;53.358;6.382;2023-12-20T10:08:24;10.53;;;2.37;;
17854;SDS011;9053;53.358;6.382;2023-12-20T10:10:57;10.17;;;2.80;;
17854;SDS011;9053;53.358;6.382;2023-12-20T10:13:29;8.80;;;2.10;;
17854;SDS011;9053;53.358;6.382;2023-12-20T10:15:59;12.33;;;2.30;;
17854;SDS011;9053;53.358;6.382;2023-12-20T10:18:29;8.60;;;1.60;;
17854;SDS011;9053;53.358;6.382;2023-12-20T10:21:05;14.07;;;2.23;;
17854;SDS011;9053;53.358;6.382;2023-12-20T10:23:37;8.30;;;2.20;;
17854;SDS011;9053;53.358;6.382;2023-12-20T10:26:10;18.57;;;2.57;;
17854;SDS011;9053;53.358;6.382;2023-12-20T10:28:50;12.80;;;2.63;;
17854;SDS011;9053;53.358;6.382;2023-12-20T10:31:27;11.37;;;2.50;;
17854;SDS011;9053;53.358;6.382;2023-12-20T10:34:02;15.97;;;2.67;;
17854;SDS011;9053;53.358;6.382;2023-12-20T10:36:33;14.30;;;3.40;;
17854;SDS011;9053;53.358;6.382;2023-12-20T10:39:03;18.03;;;3.40;;
17854;SDS011;9053;53.358;6.382;2023-12-20T10:41:37;12.10;;;2.90;;
17854;SDS011;9053;53.358;6.382;2023-12-20T10:44:08;16.70;;;3.50;;
17854;SDS011;9053;53.358;6.382;2023-12-20T10:46:40;11.57;;;2.67;;
17854;SDS011;9053;53.358;6.382;2023-12-20T10:49:16;17.37;;;3.50;;
17854;SDS011;9053;53.358;6.382;2023-12-20T10:51:47;19.43;;;3.50;;
17854;SDS011;9053;53.358;6.382;2023-12-20T10:54:19;21.53;;;3.60;;
17854;SDS011;9053;53.358;6.382;2023-12-20T10:56:52;12.27;;;3.70;;
17854;SDS011;9053;53.358;6.382;2023-12-20T10:59:23;18.20;;;3.73;;
17854;SDS011;9053;53.358;6.382;2023-12-20T11:01:55;15.30;;;2.83;;
17854;SDS011;9053;53.358;6.382;2023-12-20T11:04:28;22.57;;;3.53;;
17854;SDS011;9053;53.358;6.382;2023-12-20T11:07:08;14.53;;;3.10;;
17854;SDS011;9053;53.358;6.382;2023-12-20T11:09:49;14.03;;;3.37;;
17854;SDS011;9053;53.358;6.382;2023-12-20T11:12:32;20.00;;;3.27;;
17854;SDS011;9053;53.358;6.382;2023-12-20T11:15:07;13.70;;;3.03;;
17854;SDS011;9053;53.358;6.382;2023-12-20T11:17:38;18.87;;;3.20;;
17854;SDS011;9053;53.358;6.382;2023-12-20T11:20:09;14.37;;;3.20;;
17854;SDS011;9053;53.358;6.382;2023-12-20T11:22:51;17.33;;;4.03;;
17854;SDS011;9053;53.358;6.382;2023-12-20T11:25:23;15.70;;;3.97;;
17854;SDS011;9053;53.358;6.382;2023-12-20T11:28:11;14.50;;;3.50;;
17854;SDS011;9053;53.358;6.382;2023-12-20T11:30:42;19.77;;;4.03;;
17854;SDS011;9053;53.358;6.382;2023-12-20T11:33:15;14.53;;;3.13;;
17854;SDS011;9053;53.358;6.382;2023-12-20T11:35:46;17.20;;;4.17;;
17854;SDS011;9053;53.358;6.382;2023-12-20T11:38:16;17.03;;;3.67;;
17854;SDS011;9053;53.358;6.382;2023-12-20T11:40:47;14.93;;;3.20;;
17854;SDS011;9053;53.358;6.382;2023-12-20T11:43:34;14.77;;;2.93;;
17854;SDS011;9053;53.358;6.382;2023-12-20T11:46:06;17.50;;;3.37;;
17854;SDS011;9053;53.358;6.382;2023-12-20T11:48:37;15.70;;;3.70;;
17854;SDS011;9053;53.358;6.382;2023-12-20T11:51:11;16.20;;;3.17;;
17854;SDS011;9053;53.358;6.382;2023-12-20T11:53:41;21.40;;;3.53;;
17854;SDS011;9053;53.358;6.382;2023-12-20T11:56:11;15.53;;;3.07;;
17854;SDS011;9053;53.358;6.382;2023-12-20T11:58:44;10.27;;;2.60;;
17854;SDS011;9053;53.358;6.382;2023-12-20T12:01:17;15.23;;;3.33;;
17854;SDS011;9053;53.358;6.382;2023-12-20T12:03:49;13.83;;;3.50;;
17854;SDS011;9053;53.358;6.382;2023-12-20T12:06:32;15.83;;;3.93;;
17854;SDS011;9053;53.358;6.382;2023-12-20T12:09:04;14.67;;;3.43;;
17854;SDS011;9053;53.358;6.382;2023-12-20T12:11:35;13.93;;;2.77;;
17854;SDS011;9053;53.358;6.382;2023-12-20T12:14:09;13.03;;;2.80;;
17854;SDS011;9053;53.358;6.382;2023-12-20T12:16:41;16.83;;;3.40;;
17854;SDS011;9053;53.358;6.382;2023-12-20T12:19:20;11.77;;;2.97;;
17854;SDS011;9053;53.358;6.382;2023-12-20T12:21:51;17.27;;;3.43;;
17854;SDS011;9053;53.358;6.382;2023-12-20T12:24:34;10.70;;;2.50;;
17854;SDS011;9053;53.358;6.382;2023-12-20T12:27:05;14.97;;;2.87;;
17854;SDS011;9053;53.358;6.382;2023-12-20T12:29:39;11.10;;;2.50;;
17854;SDS011;9053;53.358;6.382;2023-12-20T12:32:09;9.60;;;2.77;;
17854;SDS011;9053;53.358;6.382;2023-12-20T12:34:39;13.17;;;2.57;;
17854;SDS011;9053;53.358;6.382;2023-12-20T12:37:10;10.50;;;3.17;;
17854;SDS011;9053;53.358;6.382;2023-12-20T12:39:40;14.43;;;2.57;;
17854;SDS011;9053;53.358;6.382;2023-12-20T12:42:10;11.47;;;3.03;;
17854;SDS011;9053;53.358;6.382;2023-12-20T12:44:43;10.43;;;2.70;;
17854;SDS011;9053;53.358;6.382;2023-12-20T12:47:13;16.57;;;3.60;;
17854;SDS011;9053;53.358;6.382;2023-12-20T12:49:43;11.97;;;3.03;;
17854;SDS011;9053;53.358;6.382;2023-12-20T12:52:13;8.20;;;2.40;;
17854;SDS011;9053;53.358;6.382;2023-12-20T12:54:43;11.23;;;3.00;;
17854;SDS011;9053;53.358;6.382;2023-12-20T12:57:14;10.30;;;2.13;;
17854;SDS011;9053;53.358;6.382;2023-12-20T12:59:47;8.93;;;2.80;;
17854;SDS011;9053;53.358;6.382;2023-12-20T13:02:18;9.17;;;2.03;;
17854;SDS011;9053;53.358;6.382;2023-12-20T13:04:49;12.33;;;2.33;;
17854;SDS011;9053;53.358;6.382;2023-12-20T13:07:19;10.30;;;2.37;;
17854;SDS011;9053;53.358;6.382;2023-12-20T13:09:49;13.87;;;2.80;;
17854;SDS011;9053;53.358;6.382;2023-12-20T13:12:19;9.70;;;2.60;;
17854;SDS011;9053;53.358;6.382;2023-12-20T13:14:52;13.00;;;4.47;;
17854;SDS011;9053;53.358;6.382;2023-12-20T13:17:22;12.00;;;3.70;;
17854;SDS011;9053;53.358;6.382;2023-12-20T13:19:55;10.27;;;2.60;;
17854;SDS011;9053;53.358;6.382;2023-12-20T13:22:26;13.93;;;2.43;;
17854;SDS011;9053;53.358;6.382;2023-12-20T13:24:56;11.43;;;2.40;;
17854;SDS011;9053;53.358;6.382;2023-12-20T13:27:26;8.47;;;2.17;;
17854;SDS011;9053;53.358;6.382;2023-12-20T13:29:59;9.47;;;1.73;;
17854;SDS011;9053;53.358;6.382;2023-12-20T13:32:30;9.57;;;2.10;;
17854;SDS011;9053;53.358;6.382;2023-12-20T13:35:00;11.13;;;2.10;;
17854;SDS011;9053;53.358;6.382;2023-12-20T13:37:33;6.00;;;1.60;;
17854;SDS011;9053;53.358;6.382;2023-12-20T13:40:04;7.37;;;1.83;;
17854;SDS011;9053;53.358;6.382;2023-12-20T13:42:35;9.43;;;2.07;;
17854;SDS011;9053;53.358;6.382;2023-12-20T13:45:09;7.30;;;1.70;;
17854;SDS011;9053;53.358;6.382;2023-12-20T13:47:39;8.33;;;1.80;;
17854;SDS011;9053;53.358;6.382;2023-12-20T13:50:10;9.70;;;2.03;;
17854;SDS011;9053;53.358;6.382;2023-12-20T13:52:40;10.67;;;2.00;;
17854;SDS011;9053;53.358;6.382;2023-12-20T13:55:10;14.07;;;2.20;;
17854;SDS011;9053;53.358;6.382;2023-12-20T13:57:40;6.43;;;1.97;;
17854;SDS011;9053;53.358;6.382;2023-12-20T14:00:23;9.30;;;2.17;;
17854;SDS011;9053;53.358;6.382;2023-12-20T14:02:53;8.00;;;1.93;;
17854;SDS011;9053;53.358;6.382;2023-12-20T14:05:25;10.10;;;2.60;;
17854;SDS011;9053;53.358;6.382;2023-12-20T14:07:55;9.37;;;2.30;;
17854;SDS011;9053;53.358;6.382;2023-12-20T14:10:27;10.43;;;2.40;;
17854;SDS011;9053;53.358;6.382;2023-12-20T14:12:57;18.87;;;3.77;;
17854;SDS011;9053;53.358;6.382;2023-12-20T14:15:31;18.03;;;5.80;;
17854;SDS011;9053;53.358;6.382;2023-12-20T14:18:04;9.73;;;2.10;;
17854;SDS011;9053;53.358;6.382;2023-12-20T14:20:35;8.03;;;1.77;;
17854;SDS011;9053;53.358;6.382;2023-12-20T14:23:06;6.83;;;2.30;;
17854;SDS011;9053;53.358;6.382;2023-12-20T14:25:36;7.63;;;1.80;;
17854;SDS011;9053;53.358;6.382;2023-12-20T14:28:17;6.97;;;1.80;;
17854;SDS011;9053;53.358;6.382;2023-12-20T14:30:50;6.07;;;1.50;;
17854;SDS011;9053;53.358;6.382;2023-12-20T14:33:20;4.77;;;1.97;;
17854;SDS011;9053;53.358;6.382;2023-12-20T14:35:50;5.67;;;1.50;;
17854;SDS011;9053;53.358;6.382;2023-12-20T14:38:23;9.33;;;1.80;;
17854;SDS011;9053;53.358;6.382;2023-12-20T14:40:53;2.87;;;1.30;;
17854;SDS011;9053;53.358;6.382;2023-12-20T14:43:23;5.93;;;1.70;;
17854;SDS011;9053;53.358;6.382;2023-12-20T14:45:56;4.40;;;1.33;;
17854;SDS011;9053;53.358;6.382;2023-12-20T14:48:26;3.10;;;1.10;;
17854;SDS011;9053;53.358;6.382;2023-12-20T14:50:56;4.13;;;1.10;;
17854;SDS011;9053;53.358;6.382;2023-12-20T14:53:26;4.97;;;1.50;;
17854;SDS011;9053;53.358;6.382;2023-12-20T14:55:56;7.67;;;1.57;;
17854;SDS011;9053;53.358;6.382;2023-12-20T14:58:27;4.30;;;1.30;;
17854;SDS011;9053;53.358;6.382;2023-12-20T15:01:01;7.43;;;1.57;;
17854;SDS011;9053;53.358;6.382;2023-12-20T15:03:31;6.80;;;1.60;;
17854;SDS011;9053;53.358;6.382;2023-12-20T15:06:01;9.87;;;1.67;;
17854;SDS011;9053;53.358;6.382;2023-12-20T15:08:32;8.60;;;1.90;;
17854;SDS011;9053;53.358;6.382;2023-12-20T15:11:02;9.60;;;2.00;;
17854;SDS011;9053;53.358;6.382;2023-12-20T15:13:32;8.80;;;2.00;;
17854;SDS011;9053;53.358;6.382;2023-12-20T15:16:05;7.17;;;2.13;;